createdAt,value
2022-09-14T00:00:07.610Z,0.26
2022-09-14T00:01:47.382Z,0.26
2022-09-14T00:03:27.147Z,0.21
2022-09-14T00:05:06.906Z,0.23
2022-09-14T00:06:46.663Z,0.26
2022-09-14T00:10:06.210Z,0.24
2022-09-14T00:11:45.994Z,0.21
2022-09-14T00:13:25.755Z,0.26
2022-09-14T00:15:05.540Z,0.26
2022-09-14T00:16:45.262Z,0.28
2022-09-14T00:18:25.016Z,0.22
2022-09-14T00:20:04.782Z,0.2
2022-09-14T00:21:44.543Z,0.26
2022-09-14T00:23:24.314Z,0.28
2022-09-14T00:25:04.077Z,0.26
2022-09-14T00:26:43.833Z,0.24
2022-09-14T00:28:23.622Z,0.3
2022-09-14T00:30:03.382Z,0.29
2022-09-14T00:31:43.141Z,0.24
2022-09-14T00:33:22.930Z,0.26
2022-09-14T00:35:02.659Z,0.28
2022-09-14T00:36:42.437Z,0.27
2022-09-14T00:38:22.194Z,0.27
2022-09-14T00:40:01.961Z,0.26
2022-09-14T00:41:41.747Z,0.24
2022-09-14T00:43:21.481Z,0.23
2022-09-14T00:45:01.253Z,0.23
2022-09-14T00:46:41.005Z,0.27
2022-09-14T00:48:20.768Z,0.26
2022-09-14T00:50:00.541Z,0.24
2022-09-14T00:51:40.320Z,0.25
2022-09-14T00:53:20.085Z,0.25
2022-09-14T00:54:59.854Z,0.22
2022-09-14T00:56:39.604Z,0.25
2022-09-14T00:58:19.386Z,0.24
2022-09-14T00:59:59.140Z,0.24
2022-09-14T01:01:38.891Z,0.23
2022-09-14T01:03:18.662Z,0.22
2022-09-14T01:04:58.452Z,0.23
2022-09-14T01:06:38.203Z,0.23
2022-09-14T01:08:17.959Z,0.24
2022-09-14T01:09:57.716Z,0.24
2022-09-14T01:11:37.479Z,0.23
2022-09-14T01:13:17.255Z,0.24
2022-09-14T01:14:57.011Z,0.25
2022-09-14T01:16:36.767Z,0.25
2022-09-14T01:18:16.543Z,0.29
2022-09-14T01:19:56.319Z,0.26
2022-09-14T01:21:36.073Z,0.24
2022-09-14T01:23:15.834Z,0.23
2022-09-14T01:24:55.609Z,0.23
2022-09-14T01:26:35.364Z,0.19
2022-09-14T01:28:15.126Z,0.21
2022-09-14T01:29:54.895Z,0.26
2022-09-14T01:31:34.674Z,0.25
2022-09-14T01:33:14.412Z,0.23
2022-09-14T01:34:54.199Z,0.2
2022-09-14T01:36:33.948Z,0.27
2022-09-14T01:38:13.712Z,0.28
2022-09-14T01:39:53.480Z,0.25
2022-09-14T01:41:33.234Z,0.23
2022-09-14T01:43:13.014Z,0.24
2022-09-14T01:44:52.775Z,0.25
2022-09-14T01:46:32.542Z,0.21
2022-09-14T01:48:12.303Z,0.25
2022-09-14T01:49:52.076Z,0.23
2022-09-14T01:51:31.831Z,0.28
2022-09-14T01:53:11.629Z,0.28
2022-09-14T01:54:51.363Z,0.28
2022-09-14T01:58:10.884Z,0.26
2022-09-14T01:59:50.653Z,0.26
2022-09-14T02:01:30.414Z,0.27
2022-09-14T02:03:10.173Z,0.29
2022-09-14T02:04:49.939Z,0.29
2022-09-14T02:06:29.705Z,0.31
2022-09-14T02:08:09.470Z,0.3
2022-09-14T02:09:49.239Z,0.3
2022-09-14T02:11:28.994Z,0.28
2022-09-14T02:13:08.765Z,0.26
2022-09-14T02:14:48.524Z,0.26
2022-09-14T02:16:28.286Z,0.29
2022-09-14T02:18:08.064Z,0.29
2022-09-14T02:19:47.826Z,0.24
2022-09-14T02:21:27.587Z,0.23
2022-09-14T02:23:07.348Z,0.29
2022-09-14T02:24:47.113Z,0.3
2022-09-14T02:26:26.883Z,0.29
2022-09-14T02:28:06.649Z,0.28
2022-09-14T02:29:46.415Z,0.28
2022-09-14T02:31:26.190Z,0.29
2022-09-14T02:33:05.932Z,0.3
2022-09-14T02:34:45.709Z,0.3
2022-09-14T02:36:25.465Z,0.3
2022-09-14T02:38:05.248Z,0.28
2022-09-14T02:39:45.023Z,0.3
2022-09-14T02:41:24.753Z,0.27
2022-09-14T02:43:04.519Z,0.29
2022-09-14T02:44:44.290Z,0.23
2022-09-14T02:46:24.048Z,0.22
2022-09-14T02:48:03.815Z,0.29
2022-09-14T02:49:43.609Z,0.31
2022-09-14T02:51:23.356Z,0.29
2022-09-14T02:53:03.114Z,0.28
2022-09-14T02:54:42.867Z,0.25
2022-09-14T02:56:22.645Z,0.27
2022-09-14T02:58:02.401Z,0.25
2022-09-14T02:59:42.161Z,0.25
2022-09-14T03:01:21.939Z,0.23
2022-09-14T03:03:01.692Z,0.21
2022-09-14T03:04:41.469Z,0.27
2022-09-14T03:06:21.248Z,0.25
2022-09-14T03:08:00.989Z,0.28
2022-09-14T03:09:40.758Z,0.24
2022-09-14T03:11:20.570Z,0.25
2022-09-14T03:13:00.315Z,0.26
2022-09-14T03:14:40.055Z,0.23
2022-09-14T03:16:19.842Z,0.26
2022-09-14T03:17:59.577Z,0.26
2022-09-14T03:19:39.331Z,0.27
2022-09-14T03:21:19.096Z,0.26
2022-09-14T03:22:58.863Z,0.26
2022-09-14T03:24:38.629Z,0.25
2022-09-14T03:26:18.398Z,0.24
2022-09-14T03:27:58.178Z,0.23
2022-09-14T03:29:37.938Z,0.26
2022-09-14T03:31:17.684Z,0.27
2022-09-14T03:32:57.463Z,0.3
2022-09-14T03:34:37.248Z,0.32
2022-09-14T03:36:16.980Z,0.31
2022-09-14T03:37:56.754Z,0.31
2022-09-14T03:39:36.513Z,0.32
2022-09-14T03:41:16.272Z,0.36
2022-09-14T03:42:56.054Z,0.36
2022-09-14T03:44:35.808Z,0.38
2022-09-14T03:46:15.581Z,0.44
2022-09-14T03:47:55.330Z,0.46
2022-09-14T03:49:35.104Z,0.57
2022-09-14T03:51:14.862Z,0.65
2022-09-14T03:52:54.625Z,0.75
2022-09-14T03:54:34.403Z,0.89
2022-09-14T03:56:14.157Z,1.05
2022-09-14T03:57:53.934Z,1.37
2022-09-14T03:59:33.692Z,1.76
2022-09-14T04:01:13.442Z,2.31
2022-09-14T04:02:53.220Z,3.08
2022-09-14T04:04:32.979Z,4.1
2022-09-14T04:06:12.742Z,5.56
2022-09-14T04:07:52.498Z,7.34
2022-09-14T04:09:32.275Z,9.46
2022-09-14T04:11:12.045Z,11.94
2022-09-14T04:12:51.807Z,14.73
2022-09-14T04:14:31.564Z,17.75
2022-09-14T04:16:11.326Z,21.18
2022-09-14T04:17:51.099Z,24.91
2022-09-14T04:19:30.862Z,29.2
2022-09-14T04:21:10.658Z,26.83
2022-09-14T04:22:50.410Z,26.87
2022-09-14T04:24:30.148Z,26.9
2022-09-14T04:26:09.931Z,26.92
2022-09-14T04:27:49.672Z,26.92
2022-09-14T04:29:29.456Z,26.93
2022-09-14T04:31:09.228Z,26.94
2022-09-14T04:32:48.965Z,26.94
2022-09-14T04:34:28.737Z,26.94
2022-09-14T04:36:08.497Z,26.96
2022-09-14T04:37:48.270Z,26.88
2022-09-14T04:41:07.809Z,26.97
2022-09-14T04:42:47.559Z,26.97
2022-09-14T04:44:27.325Z,26.98
2022-09-14T04:46:07.093Z,26.99
2022-09-14T04:47:46.861Z,26.99
2022-09-14T04:49:26.607Z,27
2022-09-14T04:52:46.150Z,27.03
2022-09-14T04:54:25.963Z,27.05
2022-09-14T04:56:05.676Z,27.06
2022-09-14T04:57:45.444Z,27.08
2022-09-14T04:59:25.216Z,27.1
2022-09-14T05:01:04.982Z,27.09
2022-09-14T05:02:44.734Z,27.13
2022-09-14T05:04:24.525Z,27.15
2022-09-14T05:06:04.278Z,27.16
2022-09-14T05:07:44.061Z,27.19
2022-09-14T05:09:23.802Z,27.2
2022-09-14T05:11:03.575Z,27.22
2022-09-14T05:12:43.346Z,27.23
2022-09-14T05:14:23.136Z,27.25
2022-09-14T05:16:02.886Z,27.26
2022-09-14T05:17:42.654Z,27.28
2022-09-14T05:19:22.454Z,27.31
2022-09-14T05:21:02.195Z,50.66
2022-09-14T05:22:41.973Z,30.97
2022-09-14T05:24:21.739Z,27.44
2022-09-14T05:26:01.512Z,27.48
2022-09-14T05:27:41.283Z,27.54
2022-09-14T05:29:21.054Z,27.6
2022-09-14T05:31:00.812Z,27.65
2022-09-14T05:32:40.575Z,27.69
2022-09-14T05:34:20.362Z,27.72
2022-09-14T05:36:00.149Z,27.78
2022-09-14T05:37:39.903Z,27.81
2022-09-14T05:39:19.667Z,27.84
2022-09-14T05:40:59.486Z,27.89
2022-09-14T05:42:39.214Z,27.93
2022-09-14T05:44:19.058Z,28.01
2022-09-14T05:45:58.743Z,28.06
2022-09-14T05:47:38.534Z,28.1
2022-09-14T05:49:18.287Z,28.15
2022-09-14T05:50:58.055Z,28.2
2022-09-14T05:52:37.841Z,28.17
2022-09-14T05:54:17.630Z,28.28
2022-09-14T05:55:57.374Z,28.31
2022-09-14T05:57:37.166Z,28.35
2022-09-14T05:59:16.895Z,28.42
2022-09-14T06:00:56.719Z,28.47
2022-09-14T06:02:36.494Z,28.53
2022-09-14T06:04:16.252Z,28.6
2022-09-14T06:05:55.987Z,28.67
2022-09-14T06:07:35.749Z,28.72
2022-09-14T06:09:15.564Z,28.75
2022-09-14T06:10:55.295Z,28.76
2022-09-14T06:12:35.055Z,28.78
2022-09-14T06:14:14.878Z,28.81
2022-09-14T06:15:54.624Z,28.89
2022-09-14T06:17:34.366Z,28.98
2022-09-14T06:19:14.148Z,28.46
2022-09-14T06:20:54.029Z,48.53
2022-09-14T06:22:33.704Z,74.47
2022-09-14T06:24:13.503Z,73.74
2022-09-14T06:25:53.270Z,72.08
2022-09-14T06:27:33.010Z,72.46
2022-09-14T06:29:12.792Z,76.33
2022-09-14T06:30:52.530Z,76.64
2022-09-14T06:32:32.301Z,77.83
2022-09-14T06:34:12.110Z,78.37
2022-09-14T06:35:51.847Z,80.16
2022-09-14T06:37:31.676Z,80.8
2022-09-14T06:39:11.390Z,80.33
2022-09-14T06:40:51.160Z,80.28
2022-09-14T06:42:30.934Z,80.67
2022-09-14T06:44:10.712Z,79.82
2022-09-14T06:45:50.470Z,81.83
2022-09-14T06:47:30.245Z,83.27
2022-09-14T06:49:10.021Z,84.83
2022-09-14T06:50:49.824Z,83.59
2022-09-14T06:52:29.557Z,84.74
2022-09-14T06:54:09.315Z,84.46
2022-09-14T06:55:49.102Z,85.08
2022-09-14T06:57:28.916Z,85.72
2022-09-14T06:59:08.654Z,84.18
2022-09-14T07:00:48.392Z,82.75
2022-09-14T07:02:28.173Z,83.54
2022-09-14T07:04:08.012Z,84.09
2022-09-14T07:05:47.715Z,84.17
2022-09-14T07:07:27.481Z,83.7
2022-09-14T07:10:47.021Z,83.32
2022-09-14T07:12:26.800Z,83.57
2022-09-14T07:14:06.600Z,83.37
2022-09-14T07:15:46.335Z,83.39
2022-09-14T07:17:26.139Z,82.92
2022-09-14T07:19:05.904Z,82.17
2022-09-14T07:20:45.638Z,81.69
2022-09-14T07:22:25.466Z,81.76
2022-09-14T07:24:05.253Z,80.67
2022-09-14T07:25:44.951Z,81.16
2022-09-14T07:27:24.748Z,81.54
2022-09-14T07:29:04.494Z,82.08
2022-09-14T07:30:44.262Z,82.92
2022-09-14T07:32:24.119Z,83.59
2022-09-14T07:34:03.939Z,84.09
2022-09-14T07:35:43.584Z,84.45
2022-09-14T07:37:23.361Z,84.98
2022-09-14T07:39:03.125Z,85.46
2022-09-14T07:40:42.888Z,83.88
2022-09-14T07:42:22.661Z,83.03
2022-09-14T07:44:02.429Z,82.71
2022-09-14T07:45:42.204Z,81.86
2022-09-14T07:47:21.987Z,82.68
2022-09-14T07:49:01.737Z,83.3
2022-09-14T07:50:41.510Z,85.36
2022-09-14T07:52:21.283Z,85.67
2022-09-14T07:54:01.069Z,86.21
2022-09-14T07:55:40.928Z,85.05
2022-09-14T07:57:20.599Z,85.4
2022-09-14T07:59:00.374Z,85.14
2022-09-14T08:00:40.159Z,84.72
2022-09-14T08:02:19.911Z,84.62
2022-09-14T08:03:59.687Z,83.99
2022-09-14T08:05:39.449Z,83.32
2022-09-14T08:07:19.215Z,84.2
2022-09-14T08:08:58.991Z,83.85
2022-09-14T08:10:38.774Z,83.77
2022-09-14T08:12:18.536Z,83.62
2022-09-14T08:13:58.296Z,84.01
2022-09-14T08:15:38.057Z,84.3
2022-09-14T08:17:17.831Z,84.3
2022-09-14T08:18:57.605Z,85.08
2022-09-14T08:20:37.373Z,84.95
2022-09-14T08:22:17.150Z,84.94
2022-09-14T08:23:56.916Z,84.87
2022-09-14T08:25:36.691Z,84.31
2022-09-14T08:27:16.463Z,84.06
2022-09-14T08:28:56.241Z,84.71
2022-09-14T08:30:35.997Z,85.33
2022-09-14T08:32:15.770Z,84.99
2022-09-14T08:33:55.552Z,84.12
2022-09-14T08:35:35.314Z,83.76
2022-09-14T08:37:15.087Z,84.08
2022-09-14T08:38:54.852Z,83.38
2022-09-14T08:40:34.623Z,84.06
2022-09-14T08:42:14.402Z,84.56
2022-09-14T08:43:54.171Z,84.78
2022-09-14T08:45:33.933Z,84.68
2022-09-14T08:47:13.721Z,84.27
2022-09-14T08:48:53.471Z,84.21
2022-09-14T08:50:33.250Z,84.26
2022-09-14T08:52:13.014Z,83.91
2022-09-14T08:53:52.787Z,82.49
2022-09-14T08:55:32.598Z,82.83
2022-09-14T08:57:12.342Z,83.23
2022-09-14T08:58:52.092Z,83.73
2022-09-14T09:00:31.891Z,83.8
2022-09-14T09:02:11.688Z,83.63
2022-09-14T09:03:51.421Z,83.1
2022-09-14T09:05:31.229Z,83.42
2022-09-14T09:10:30.534Z,80.87
2022-09-14T09:12:10.263Z,81.43
2022-09-14T09:13:50.116Z,82.02
2022-09-14T09:15:29.807Z,81.92
2022-09-14T09:17:09.564Z,82.56
2022-09-14T09:18:49.350Z,82.72
2022-09-14T09:20:29.112Z,83.37
2022-09-14T09:22:08.894Z,83.6
2022-09-14T09:23:48.664Z,83.01
2022-09-14T09:25:28.541Z,82.99
2022-09-14T09:27:08.199Z,83.13
2022-09-14T09:28:47.985Z,84.79
2022-09-14T09:30:27.749Z,84.98
2022-09-14T09:32:07.518Z,85.14
2022-09-14T09:33:47.284Z,85.35
2022-09-14T09:37:06.817Z,85.26
2022-09-14T09:38:46.586Z,84.85
2022-09-14T09:40:26.359Z,85.05
2022-09-14T09:42:06.124Z,84.98
2022-09-14T09:43:45.886Z,84.37
2022-09-14T09:45:25.666Z,84.93
2022-09-14T09:47:05.430Z,85.47
2022-09-14T09:48:45.208Z,86.02
2022-09-14T09:50:25.017Z,86.9
2022-09-14T09:52:04.748Z,86.25
2022-09-14T09:53:44.523Z,85.03
2022-09-14T09:55:24.281Z,84.71
2022-09-14T09:57:04.108Z,83.7
2022-09-14T09:58:43.821Z,83.64
2022-09-14T10:00:23.584Z,84.26
2022-09-14T10:02:03.366Z,84.73
2022-09-14T10:03:43.162Z,85.5
2022-09-14T10:05:22.910Z,85.81
2022-09-14T10:07:02.690Z,84.33
2022-09-14T10:08:42.524Z,84.55
2022-09-14T10:10:22.234Z,84.92
2022-09-14T10:12:02.099Z,84.95
2022-09-14T10:13:41.774Z,84.79
2022-09-14T10:15:21.526Z,84.18
2022-09-14T10:17:01.283Z,83.98
2022-09-14T10:18:41.063Z,83.99
2022-09-14T10:20:20.842Z,84
2022-09-14T10:22:00.599Z,84.17
2022-09-14T10:23:40.379Z,84.51
2022-09-14T10:25:20.159Z,84.73
2022-09-14T10:26:59.919Z,84.92
2022-09-14T10:28:39.680Z,85.14
2022-09-14T10:30:19.440Z,85.35
2022-09-14T10:31:59.224Z,85.92
2022-09-14T10:33:38.992Z,86
2022-09-14T10:35:18.793Z,85.71
2022-09-14T10:36:58.538Z,85.52
2022-09-14T10:38:38.313Z,85.57
2022-09-14T10:40:18.070Z,84.84
2022-09-14T10:41:57.849Z,84.56
2022-09-14T10:43:37.612Z,84.55
2022-09-14T10:45:17.470Z,84.75
2022-09-14T10:46:57.157Z,84.78
2022-09-14T10:48:36.932Z,84.72
2022-09-14T10:50:16.794Z,84.42
2022-09-14T10:51:56.495Z,84.31
2022-09-14T10:53:36.322Z,84.76
2022-09-14T10:55:16.138Z,85.56
2022-09-14T10:56:55.786Z,86.37
2022-09-14T10:58:35.615Z,86
2022-09-14T11:00:15.368Z,85.72
2022-09-14T11:01:55.150Z,85.97
2022-09-14T11:03:34.914Z,85.37
2022-09-14T11:05:14.757Z,83.5
2022-09-14T11:06:54.435Z,84.88
2022-09-14T11:08:34.246Z,84.95
2022-09-14T11:10:14.011Z,85.01
2022-09-14T11:11:53.720Z,85.69
2022-09-14T11:13:33.496Z,85.7
2022-09-14T11:15:13.259Z,85.68
2022-09-14T11:16:53.036Z,84.58
2022-09-14T11:18:32.784Z,84.99
2022-09-14T11:20:12.561Z,84.83
2022-09-14T11:21:52.374Z,83.09
2022-09-14T11:23:32.111Z,83.1
2022-09-14T11:25:11.906Z,85.4
2022-09-14T11:26:51.674Z,84.44
2022-09-14T11:28:31.424Z,84.8
2022-09-14T11:30:11.187Z,84.52
2022-09-14T11:31:50.969Z,84.49
2022-09-14T11:33:30.726Z,84.73
2022-09-14T11:35:10.504Z,85.54
2022-09-14T11:36:50.283Z,85.58
2022-09-14T11:38:30.085Z,84.99
2022-09-14T11:40:09.806Z,84.51
2022-09-14T11:41:49.656Z,82.99
2022-09-14T11:43:29.348Z,85.88
2022-09-14T11:45:09.124Z,84.46
2022-09-14T11:46:48.897Z,85.07
2022-09-14T11:48:28.657Z,83.26
2022-09-14T11:50:08.482Z,83.76
2022-09-14T11:51:48.316Z,86.36
2022-09-14T11:53:27.988Z,85.61
2022-09-14T11:55:07.750Z,83.49
2022-09-14T11:56:47.509Z,84.13
2022-09-14T11:58:27.300Z,85.78
2022-09-14T12:01:46.826Z,83.34
2022-09-14T12:03:26.618Z,82.84
2022-09-14T12:05:06.361Z,83.46
2022-09-14T12:06:46.146Z,84.03
2022-09-14T12:08:25.914Z,83.35
2022-09-14T12:10:05.694Z,83.15
2022-09-14T12:11:45.451Z,82.65
2022-09-14T12:13:25.224Z,82.8
2022-09-14T12:15:05.010Z,82.96
2022-09-14T12:16:44.768Z,82.91
2022-09-14T12:18:24.527Z,83.06
2022-09-14T12:20:04.391Z,83.33
2022-09-14T12:21:44.219Z,83.62
2022-09-14T12:23:23.859Z,84.17
2022-09-14T12:25:03.609Z,84.49
2022-09-14T12:26:43.496Z,84.43
2022-09-14T12:28:23.150Z,84.19
2022-09-14T12:30:02.947Z,84.1
2022-09-14T12:31:42.698Z,83.98
2022-09-14T12:33:22.466Z,83.98
2022-09-14T12:35:02.238Z,83.95
2022-09-14T12:38:21.772Z,84.21
2022-09-14T12:40:01.555Z,84.35
2022-09-14T12:41:41.327Z,84.53
2022-09-14T12:43:21.089Z,84.47
2022-09-14T12:45:00.860Z,84.24
2022-09-14T12:46:40.630Z,84.38
2022-09-14T12:48:20.411Z,84.38
2022-09-14T12:50:00.209Z,84.71
2022-09-14T12:51:39.951Z,84.72
2022-09-14T12:53:19.794Z,84.62
2022-09-14T12:54:59.500Z,84.6
2022-09-14T12:56:39.305Z,84.63
2022-09-14T12:58:19.023Z,84.78
2022-09-14T12:59:58.795Z,85.1
2022-09-14T13:01:38.661Z,85.26
2022-09-14T13:03:18.418Z,84.67
2022-09-14T13:04:58.116Z,85.37
2022-09-14T13:06:37.884Z,85.26
2022-09-14T13:08:17.658Z,84.97
2022-09-14T13:09:57.429Z,84.57
2022-09-14T13:11:37.202Z,84.74
2022-09-14T13:13:16.949Z,84.86
2022-09-14T13:14:56.747Z,83.44
2022-09-14T13:16:36.574Z,84.16
2022-09-14T13:18:16.419Z,83.9
2022-09-14T13:19:56.161Z,83.43
2022-09-14T13:21:35.809Z,82.33
2022-09-14T13:23:15.583Z,82.7
2022-09-14T13:24:55.476Z,82.61
2022-09-14T13:28:14.931Z,83.24
2022-09-14T13:29:54.812Z,83.6
2022-09-14T13:31:34.459Z,83.88
2022-09-14T13:33:14.262Z,83.76
2022-09-14T13:34:54.019Z,83.37
2022-09-14T13:36:33.768Z,83.28
2022-09-14T13:38:13.603Z,83.26
2022-09-14T13:39:53.292Z,83.24
2022-09-14T13:41:33.048Z,83.2
2022-09-14T13:43:12.823Z,83.28
2022-09-14T13:44:52.604Z,83.35
2022-09-14T13:46:32.359Z,83.27
2022-09-14T13:48:12.134Z,83.25
2022-09-14T13:49:51.908Z,83.34
2022-09-14T13:51:31.667Z,83.42
2022-09-14T13:53:11.447Z,83.44
2022-09-14T13:54:51.209Z,83.46
2022-09-14T13:56:30.984Z,83.34
2022-09-14T13:58:10.748Z,83.14
2022-09-14T13:59:50.528Z,83
2022-09-14T14:01:30.284Z,82.95
2022-09-14T14:03:10.069Z,83.01
2022-09-14T14:04:49.842Z,83.14
2022-09-14T14:06:29.684Z,83.29
2022-09-14T14:08:09.389Z,83.35
2022-09-14T14:09:49.144Z,83.37
2022-09-14T14:11:28.940Z,83.24
2022-09-14T14:13:08.705Z,83.09
2022-09-14T14:14:48.460Z,83.08
2022-09-14T14:16:28.227Z,83.07
2022-09-14T14:18:08.000Z,83.04
2022-09-14T14:19:47.771Z,83.01
2022-09-14T14:21:27.564Z,82.94
2022-09-14T14:23:07.349Z,82.7
2022-09-14T14:24:47.076Z,82.4
2022-09-14T14:26:26.854Z,82.26
2022-09-14T14:28:06.611Z,82.37
2022-09-14T14:29:46.379Z,82.6
2022-09-14T14:31:26.155Z,82.8
2022-09-14T14:33:05.946Z,82.83
2022-09-14T14:34:45.696Z,82.71
2022-09-14T14:36:25.452Z,82.56
2022-09-14T14:38:05.379Z,82.31
2022-09-14T14:39:45.151Z,81.95
2022-09-14T14:41:24.765Z,81.55
2022-09-14T14:43:04.542Z,81.12
2022-09-14T14:44:44.308Z,80.89
2022-09-14T14:46:24.202Z,80.9
2022-09-14T14:48:03.882Z,80.97
2022-09-14T14:49:43.679Z,80.97
2022-09-14T14:51:23.405Z,80.9
2022-09-14T14:53:03.155Z,80.74
2022-09-14T14:54:42.923Z,80.58
2022-09-14T14:56:22.682Z,80.51
2022-09-14T14:58:02.454Z,80.58
2022-09-14T14:59:42.238Z,80.6
2022-09-14T15:01:22.011Z,80.5
2022-09-14T15:03:01.777Z,80.33
2022-09-14T15:04:41.558Z,80.19
2022-09-14T15:06:21.307Z,79.98
2022-09-14T15:08:01.083Z,79.76
2022-09-14T15:09:40.932Z,79.51
2022-09-14T15:11:20.619Z,79.25
2022-09-14T15:13:00.395Z,78.99
2022-09-14T15:14:40.147Z,78.83
2022-09-14T15:16:19.916Z,78.87
2022-09-14T15:17:59.688Z,78.93
2022-09-14T15:19:39.515Z,78.69
2022-09-14T15:21:19.235Z,78.28
2022-09-14T15:22:59.016Z,77.83
2022-09-14T15:24:38.778Z,77.57
2022-09-14T15:26:18.537Z,77.44
2022-09-14T15:27:58.322Z,77.48
2022-09-14T15:29:38.087Z,77.65
2022-09-14T15:31:17.860Z,77.86
2022-09-14T15:32:57.626Z,77.91
2022-09-14T15:34:37.394Z,77.92
2022-09-14T15:36:17.172Z,77.87
2022-09-14T15:37:56.938Z,77.93
2022-09-14T15:39:36.703Z,78.14
2022-09-14T15:41:16.492Z,78.47
2022-09-14T15:42:56.251Z,78.87
2022-09-14T15:44:36.002Z,79.33
2022-09-14T15:46:15.776Z,79.66
2022-09-14T15:47:55.544Z,79.62
2022-09-14T15:49:35.314Z,79.31
2022-09-14T15:51:15.085Z,78.9
2022-09-14T15:52:54.866Z,78.62
2022-09-14T15:54:34.622Z,78.53
2022-09-14T15:56:14.405Z,78.47
2022-09-14T15:57:54.175Z,78.43
2022-09-14T15:59:33.932Z,78.36
2022-09-14T16:01:13.712Z,78.33
2022-09-14T16:02:53.487Z,78.39
2022-09-14T16:04:33.251Z,78.6
2022-09-14T16:06:13.036Z,78.67
2022-09-14T16:07:52.790Z,78.57
2022-09-14T16:09:32.548Z,78.4
2022-09-14T16:11:12.317Z,78.11
2022-09-14T16:12:52.099Z,77.74
2022-09-14T16:14:31.901Z,77.06
2022-09-14T16:16:11.630Z,76.37
2022-09-14T16:17:51.408Z,76.08
2022-09-14T16:19:31.182Z,76.07
2022-09-14T16:21:10.948Z,76.17
2022-09-14T16:22:50.723Z,75.97
2022-09-14T16:24:30.484Z,75.51
2022-09-14T16:26:10.265Z,75
2022-09-14T16:27:50.018Z,74.37
2022-09-14T16:29:29.796Z,73.18
2022-09-14T16:31:09.562Z,71.75
2022-09-14T16:32:49.335Z,69.86
2022-09-14T16:34:29.108Z,66.83
2022-09-14T16:36:08.885Z,60.62
2022-09-14T16:37:48.656Z,49.7
2022-09-14T16:39:28.435Z,39.98
2022-09-14T16:41:08.189Z,37.37
2022-09-14T16:42:47.953Z,37.41
2022-09-14T16:44:27.746Z,37.56
2022-09-14T16:47:47.268Z,33.82
2022-09-14T16:49:27.038Z,30.49
2022-09-14T16:51:06.810Z,28.21
2022-09-14T16:52:46.572Z,28.18
2022-09-14T16:56:06.111Z,28.12
2022-09-14T16:57:45.891Z,28.1
2022-09-14T16:59:25.683Z,28.07
2022-09-14T17:01:05.429Z,28.01
2022-09-14T17:02:45.202Z,28
2022-09-14T17:04:24.978Z,27.96
2022-09-14T17:06:04.733Z,27.93
2022-09-14T17:09:24.276Z,27.87
2022-09-14T17:11:04.022Z,32.91
2022-09-14T17:12:43.802Z,32.7
2022-09-14T17:14:23.574Z,27.81
2022-09-14T17:16:03.345Z,27.79
2022-09-14T17:17:43.105Z,27.76
2022-09-14T17:19:22.865Z,27.73
2022-09-14T17:21:02.659Z,27.7
2022-09-14T17:22:42.410Z,27.67
2022-09-14T17:24:22.180Z,27.65
2022-09-14T17:26:01.939Z,27.62
2022-09-14T17:27:41.699Z,27.59
2022-09-14T17:29:21.478Z,27.56
2022-09-14T17:31:01.266Z,27.52
2022-09-14T17:34:20.781Z,27.47
2022-09-14T17:36:00.539Z,27.41
2022-09-14T17:37:40.308Z,27.34
2022-09-14T17:39:20.080Z,24.23
2022-09-14T17:40:59.863Z,19.73
2022-09-14T17:42:39.620Z,15.72
2022-09-14T17:44:19.381Z,12.36
2022-09-14T17:45:59.151Z,9.7
2022-09-14T17:47:38.933Z,7.65
2022-09-14T17:49:18.706Z,6.07
2022-09-14T17:50:58.447Z,4.89
2022-09-14T17:52:38.227Z,3.99
2022-09-14T17:54:17.990Z,3.34
2022-09-14T17:55:57.751Z,2.83
2022-09-14T17:57:37.520Z,2.34
2022-09-14T17:59:17.292Z,1.91
2022-09-14T18:00:57.062Z,1.54
2022-09-14T18:02:36.829Z,1.21
2022-09-14T18:04:16.589Z,0.94
2022-09-14T18:05:56.367Z,0.7
2022-09-14T18:07:36.134Z,0.58
2022-09-14T18:09:15.899Z,0.48
2022-09-14T18:10:55.674Z,0.39
2022-09-14T18:12:35.431Z,0.36
2022-09-14T18:14:15.202Z,0.32
2022-09-14T18:15:54.967Z,0.33
2022-09-14T18:17:34.750Z,0.29
2022-09-14T18:19:14.509Z,0.3
2022-09-14T18:20:54.276Z,0.28
2022-09-14T18:22:34.035Z,0.26
2022-09-14T18:24:13.803Z,0.27
2022-09-14T18:25:53.578Z,0.23
2022-09-14T18:27:33.322Z,0.22
2022-09-14T18:29:13.132Z,0.21
2022-09-14T18:30:52.864Z,0.22
2022-09-14T18:32:32.626Z,0.22
2022-09-14T18:34:12.402Z,0.22
2022-09-14T18:35:52.171Z,0.23
2022-09-14T18:37:31.948Z,0.19
2022-09-14T18:39:11.698Z,0.23
2022-09-14T18:40:51.468Z,0.21
2022-09-14T18:42:31.243Z,0.21
2022-09-14T18:44:11.002Z,0.24
2022-09-14T18:45:50.770Z,0.23
2022-09-14T18:47:30.537Z,0.22
2022-09-14T18:49:10.307Z,0.25
2022-09-14T18:50:50.078Z,0.25
2022-09-14T18:52:29.836Z,0.24
2022-09-14T18:54:09.619Z,0.24
2022-09-14T18:55:49.380Z,0.26
2022-09-14T18:57:29.156Z,0.23
2022-09-14T18:59:08.940Z,0.24
2022-09-14T19:00:48.676Z,0.24
2022-09-14T19:02:28.476Z,0.25
2022-09-14T19:04:08.217Z,0.25
2022-09-14T19:05:47.980Z,0.26
2022-09-14T19:07:27.748Z,0.23
2022-09-14T19:09:07.534Z,0.24
2022-09-14T19:10:47.287Z,0.26
2022-09-14T19:12:27.057Z,0.24
2022-09-14T19:14:06.829Z,0.23
2022-09-14T19:15:46.585Z,0.26
2022-09-14T19:17:26.388Z,0.26
2022-09-14T19:19:06.117Z,0.24
2022-09-14T19:20:45.895Z,0.25
2022-09-14T19:22:25.668Z,0.27
2022-09-14T19:24:05.478Z,0.23
2022-09-14T19:25:45.196Z,0.22
2022-09-14T19:27:24.961Z,0.25
2022-09-14T19:29:04.733Z,0.22
2022-09-14T19:30:44.514Z,0.21
2022-09-14T19:32:24.268Z,0.24
2022-09-14T19:34:04.021Z,0.21
2022-09-14T19:35:43.800Z,0.23
2022-09-14T19:37:23.575Z,0.21
2022-09-14T19:39:03.330Z,0.23
2022-09-14T19:40:43.119Z,0.2
2022-09-14T19:42:22.869Z,0.22
2022-09-14T19:44:02.627Z,0.23
2022-09-14T19:45:42.409Z,0.21
2022-09-14T19:47:22.197Z,0.2
2022-09-14T19:49:01.939Z,0.23
2022-09-14T19:50:41.714Z,0.21
2022-09-14T19:52:21.472Z,0.22
2022-09-14T19:54:01.249Z,0.21
2022-09-14T19:55:41.015Z,0.21
2022-09-14T19:57:20.776Z,0.23
2022-09-14T19:59:00.553Z,0.19
2022-09-14T20:00:40.310Z,0.2
2022-09-14T20:02:20.072Z,0.2
2022-09-14T20:03:59.859Z,0.2
2022-09-14T20:05:39.599Z,0.19
2022-09-14T20:07:19.370Z,0.21
2022-09-14T20:08:59.127Z,0.19
2022-09-14T20:10:38.891Z,0.19
2022-09-14T20:12:18.660Z,0.19
2022-09-14T20:13:58.415Z,0.22
2022-09-14T20:15:38.181Z,0.18
2022-09-14T20:17:17.955Z,0.22
2022-09-14T20:18:57.728Z,0.19
2022-09-14T20:20:37.480Z,0.18
2022-09-14T20:22:17.255Z,0.19
2022-09-14T20:23:57.018Z,0.2
2022-09-14T20:25:36.778Z,0.18
2022-09-14T20:27:16.549Z,0.21
2022-09-14T20:28:56.335Z,0.18
2022-09-14T20:30:36.092Z,0.21
2022-09-14T20:32:15.847Z,0.17
2022-09-14T20:33:55.618Z,0.18
2022-09-14T20:35:35.470Z,0.18
2022-09-14T20:37:15.295Z,0.19
2022-09-14T20:38:55.064Z,0.18
2022-09-14T20:40:34.836Z,0.17
2022-09-14T20:42:14.599Z,0.19
2022-09-14T20:43:54.361Z,0.18
2022-09-14T20:45:34.143Z,0.17
2022-09-14T20:47:13.905Z,0.19
2022-09-14T20:48:53.658Z,0.17
2022-09-14T20:50:33.422Z,0.2
2022-09-14T20:52:13.195Z,0.17
2022-09-14T20:53:52.945Z,0.16
2022-09-14T20:55:32.561Z,0.2
2022-09-14T20:57:12.471Z,0.17
2022-09-14T20:58:52.085Z,0.2
2022-09-14T21:00:32.013Z,0.2
2022-09-14T21:02:11.764Z,0.19
2022-09-14T21:03:51.397Z,0.18
2022-09-14T21:05:31.151Z,0.17
2022-09-14T21:07:11.088Z,0.21
2022-09-14T21:08:50.690Z,0.17
2022-09-14T21:10:30.576Z,0.18
2022-09-14T21:12:10.337Z,0.2
2022-09-14T21:13:50.085Z,0.18
2022-09-14T21:15:29.870Z,0.18
2022-09-14T21:17:09.532Z,0.2
2022-09-14T21:18:49.305Z,0.21
2022-09-14T21:20:29.167Z,0.2
2022-09-14T21:23:48.565Z,0.19
2022-09-14T21:25:28.319Z,0.21
2022-09-14T21:27:08.114Z,0.21
2022-09-14T21:28:47.963Z,0.2
2022-09-14T21:30:27.644Z,0.2
2022-09-14T21:32:07.487Z,0.18
2022-09-14T21:33:47.289Z,0.2
2022-09-14T21:35:26.941Z,0.21
2022-09-14T21:37:06.700Z,0.19
2022-09-14T21:38:46.452Z,0.21
2022-09-14T21:40:26.213Z,0.19
2022-09-14T21:42:06.029Z,0.19
2022-09-14T21:43:45.874Z,0.18
2022-09-14T21:45:25.506Z,0.19
2022-09-14T21:47:05.273Z,0.19
2022-09-14T21:48:45.102Z,0.21
2022-09-14T21:50:24.814Z,0.18
2022-09-14T21:52:04.626Z,0.18
2022-09-14T21:53:44.403Z,0.18
2022-09-14T21:55:24.102Z,0.2
2022-09-14T21:57:03.879Z,0.19
2022-09-14T21:58:43.601Z,0.19
2022-09-14T22:00:23.425Z,0.22
2022-09-14T22:02:03.194Z,0.19
2022-09-14T22:03:42.928Z,0.2
2022-09-14T22:05:22.671Z,0.21
2022-09-14T22:08:42.260Z,0.21
2022-09-14T22:10:21.969Z,0.2
2022-09-14T22:12:01.779Z,0.23
2022-09-14T22:13:41.508Z,0.22
2022-09-14T22:15:21.357Z,0.21